createdAt,value
2019-02-25T00:00:56.390Z,0
2019-02-25T00:01:58.546Z,0
2019-02-25T00:03:00.670Z,0
2019-02-25T00:04:02.788Z,0
2019-02-25T00:05:04.912Z,0
2019-02-25T00:06:07.045Z,0
2019-02-25T00:07:09.143Z,0
2019-02-25T00:08:11.272Z,0
2019-02-25T00:09:13.412Z,0
2019-02-25T00:10:15.810Z,0
2019-02-25T00:11:18.487Z,0
2019-02-25T00:12:20.615Z,0
2019-02-25T00:13:22.725Z,0
2019-02-25T00:14:24.845Z,0
2019-02-25T00:15:26.995Z,0
2019-02-25T00:16:29.095Z,0
2019-02-25T00:17:31.238Z,0
2019-02-25T00:18:33.742Z,0
2019-02-25T00:19:35.861Z,0
2019-02-25T00:20:37.963Z,0
2019-02-25T00:21:40.085Z,0
2019-02-25T00:22:42.194Z,0
2019-02-25T00:23:44.587Z,0
2019-02-25T00:24:46.712Z,0
2019-02-25T00:25:48.824Z,0
2019-02-25T00:26:50.992Z,0
2019-02-25T00:27:53.118Z,0
2019-02-25T00:28:55.530Z,0
2019-02-25T00:29:57.636Z,0
2019-02-25T00:30:59.753Z,0
2019-02-25T00:32:01.861Z,0
2019-02-25T00:33:03.996Z,0
2019-02-25T00:34:06.127Z,0
2019-02-25T00:35:08.564Z,0
2019-02-25T00:36:10.667Z,0
2019-02-25T00:37:12.790Z,0
2019-02-25T00:38:15.179Z,0
2019-02-25T00:39:17.569Z,0
2019-02-25T00:40:19.698Z,0
2019-02-25T00:41:22.068Z,0
2019-02-25T00:42:24.196Z,0
2019-02-25T00:43:26.316Z,0
2019-02-25T00:44:28.477Z,0
2019-02-25T00:45:30.573Z,0
2019-02-25T00:46:32.703Z,0
2019-02-25T00:47:35.098Z,0
2019-02-25T00:48:37.214Z,0
2019-02-25T00:49:39.366Z,0
2019-02-25T00:50:41.473Z,0
2019-02-25T00:51:43.600Z,0
2019-02-25T00:52:45.715Z,0
2019-02-25T00:53:47.852Z,0
2019-02-25T00:54:49.970Z,0
2019-02-25T00:55:52.100Z,0
2019-02-25T00:56:54.230Z,0
2019-02-25T00:57:56.619Z,0
2019-02-25T00:58:58.757Z,0
2019-02-25T01:00:00.873Z,0
2019-02-25T01:01:03.047Z,0
2019-02-25T01:02:05.449Z,0
2019-02-25T01:03:07.554Z,0
2019-02-25T01:04:09.681Z,0
2019-02-25T01:05:11.781Z,0
2019-02-25T01:06:13.891Z,0
2019-02-25T01:07:16.017Z,0
2019-02-25T01:08:18.135Z,0
2019-02-25T01:09:20.639Z,0
2019-02-25T01:10:22.782Z,0
2019-02-25T01:11:24.943Z,0
2019-02-25T01:12:27.056Z,0
2019-02-25T01:13:29.497Z,0
2019-02-25T01:14:31.602Z,0
2019-02-25T01:15:33.734Z,0
2019-02-25T01:16:36.424Z,0
2019-02-25T01:17:38.557Z,0
2019-02-25T01:18:41.045Z,0
2019-02-25T01:19:43.183Z,0
2019-02-25T01:20:45.300Z,0
2019-02-25T01:21:47.683Z,0
2019-02-25T01:22:49.815Z,0
2019-02-25T01:23:52.307Z,0
2019-02-25T01:24:54.731Z,0
2019-02-25T01:25:56.837Z,0
2019-02-25T01:26:58.978Z,0
2019-02-25T01:28:01.708Z,0
2019-02-25T01:29:04.119Z,0
2019-02-25T01:30:06.240Z,0
2019-02-25T01:31:08.342Z,0
2019-02-25T01:32:10.464Z,0
2019-02-25T01:33:12.578Z,0
2019-02-25T01:34:14.679Z,0
2019-02-25T01:35:16.807Z,0
2019-02-25T01:36:18.938Z,0
2019-02-25T01:37:21.060Z,0
2019-02-25T01:38:23.169Z,0
2019-02-25T01:39:25.290Z,0
2019-02-25T01:40:27.409Z,0
2019-02-25T01:41:29.526Z,0
2019-02-25T01:42:31.631Z,0
2019-02-25T01:43:33.817Z,0
2019-02-25T01:44:35.923Z,0
2019-02-25T01:45:38.033Z,0
2019-02-25T01:46:40.169Z,0
2019-02-25T01:47:42.264Z,0
2019-02-25T01:48:44.392Z,0
2019-02-25T01:49:46.514Z,0
2019-02-25T01:50:48.635Z,0
2019-02-25T01:51:51.147Z,0
2019-02-25T01:52:53.358Z,0
2019-02-25T01:53:55.784Z,0
2019-02-25T01:54:57.951Z,0
2019-02-25T01:56:00.111Z,0
2019-02-25T01:57:02.243Z,0
2019-02-25T01:58:04.647Z,0
2019-02-25T01:59:07.158Z,0
2019-02-25T02:00:09.302Z,0
2019-02-25T02:01:11.711Z,0
2019-02-25T02:02:13.830Z,0
2019-02-25T02:03:15.949Z,0
2019-02-25T02:04:18.052Z,0
2019-02-25T02:05:20.177Z,0
2019-02-25T02:06:22.293Z,0
2019-02-25T02:07:24.397Z,0
2019-02-25T02:08:26.518Z,0
2019-02-25T02:09:28.654Z,0
2019-02-25T02:10:31.045Z,0
2019-02-25T02:11:33.171Z,0
2019-02-25T02:12:35.284Z,0
2019-02-25T02:13:37.385Z,0
2019-02-25T02:14:39.496Z,0
2019-02-25T02:15:41.603Z,0
2019-02-25T02:16:44.063Z,0
2019-02-25T02:17:46.459Z,0
2019-02-25T02:18:48.584Z,0
2019-02-25T02:19:50.703Z,0
2019-02-25T02:20:52.798Z,0
2019-02-25T02:21:54.915Z,0
2019-02-25T02:22:57.026Z,0
2019-02-25T02:23:59.201Z,0
2019-02-25T02:25:01.312Z,0
2019-02-25T02:26:03.834Z,0
2019-02-25T02:27:05.943Z,0
2019-02-25T02:28:08.060Z,0
2019-02-25T02:29:10.198Z,0
2019-02-25T02:30:12.321Z,0
2019-02-25T02:31:14.742Z,0
2019-02-25T02:32:17.240Z,0
2019-02-25T02:33:19.388Z,0
2019-02-25T02:34:22.109Z,0
2019-02-25T02:35:25.408Z,0
2019-02-25T02:36:27.536Z,0
2019-02-25T02:37:29.644Z,0
2019-02-25T02:38:31.784Z,0
2019-02-25T02:39:34.191Z,0
2019-02-25T02:40:36.308Z,0
2019-02-25T02:41:38.510Z,0
2019-02-25T02:42:40.942Z,0
2019-02-25T02:43:43.633Z,0
2019-02-25T02:44:45.750Z,0
2019-02-25T02:45:47.887Z,0
2019-02-25T02:46:50.006Z,0
2019-02-25T02:47:52.118Z,0
2019-02-25T02:48:54.266Z,0
2019-02-25T02:49:56.379Z,0
2019-02-25T02:50:59.073Z,0
2019-02-25T02:52:01.523Z,0
2019-02-25T02:53:03.634Z,0
2019-02-25T02:54:05.784Z,0
2019-02-25T02:55:08.297Z,0
2019-02-25T02:56:10.418Z,0
2019-02-25T02:57:12.520Z,0
2019-02-25T02:58:14.650Z,0
2019-02-25T02:59:16.787Z,0
2019-02-25T03:00:19.192Z,0
2019-02-25T03:01:21.345Z,0
2019-02-25T03:02:23.439Z,0
2019-02-25T03:03:25.577Z,0
2019-02-25T03:04:27.697Z,0
2019-02-25T03:05:29.822Z,0
2019-02-25T03:06:32.044Z,0
2019-02-25T03:07:34.169Z,0
2019-02-25T03:08:36.282Z,0
2019-02-25T03:09:38.679Z,0
2019-02-25T03:10:41.104Z,0
2019-02-25T03:11:43.210Z,0
2019-02-25T03:12:45.597Z,0
2019-02-25T03:13:48.738Z,0
2019-02-25T03:14:51.148Z,0
2019-02-25T03:15:53.269Z,0
2019-02-25T03:16:55.392Z,0
2019-02-25T03:17:57.507Z,0
2019-02-25T03:18:59.633Z,0
2019-02-25T03:20:01.779Z,0
2019-02-25T03:21:04.499Z,0
2019-02-25T03:22:07.316Z,0
2019-02-25T03:23:09.456Z,0
2019-02-25T03:24:11.856Z,0
2019-02-25T03:25:13.968Z,0
2019-02-25T03:26:16.096Z,0
2019-02-25T03:27:18.198Z,0
2019-02-25T03:28:20.326Z,0
2019-02-25T03:29:22.432Z,0
2019-02-25T03:30:24.852Z,0
2019-02-25T03:31:27.828Z,0
2019-02-25T03:32:30.668Z,0
2019-02-25T03:33:33.113Z,0
2019-02-25T03:34:36.037Z,0
2019-02-25T03:35:38.133Z,0
2019-02-25T03:36:40.543Z,0
2019-02-25T03:37:42.941Z,0
2019-02-25T03:38:45.108Z,0
2019-02-25T03:39:47.587Z,0
2019-02-25T03:40:50.007Z,0
2019-02-25T03:41:52.135Z,0
2019-02-25T03:42:54.246Z,0
2019-02-25T03:43:56.382Z,0
2019-02-25T03:44:58.552Z,0
2019-02-25T03:46:00.672Z,0
2019-02-25T03:47:03.200Z,0
2019-02-25T03:48:05.351Z,0
2019-02-25T03:49:07.745Z,0
2019-02-25T03:50:09.907Z,0
2019-02-25T03:51:12.027Z,0
2019-02-25T03:52:14.146Z,0
2019-02-25T03:53:16.965Z,0
2019-02-25T03:54:19.117Z,0
2019-02-25T03:55:21.219Z,0
2019-02-25T03:56:23.369Z,0
2019-02-25T03:57:26.219Z,0
2019-02-25T03:58:28.722Z,0
2019-02-25T03:59:30.906Z,0
2019-02-25T04:00:33.453Z,0
2019-02-25T04:01:35.589Z,0
2019-02-25T04:02:37.710Z,0
2019-02-25T04:03:39.841Z,0
2019-02-25T04:04:42.666Z,0
2019-02-25T04:05:45.086Z,0
2019-02-25T04:06:47.493Z,0
2019-02-25T04:07:49.615Z,0
2019-02-25T04:08:51.730Z,0
2019-02-25T04:09:53.864Z,0
2019-02-25T04:10:56.381Z,0
2019-02-25T04:11:58.811Z,0
2019-02-25T04:13:00.919Z,0
2019-02-25T04:14:03.423Z,0
2019-02-25T04:15:06.329Z,0
2019-02-25T04:16:08.717Z,0
2019-02-25T04:17:11.138Z,0
2019-02-25T04:18:13.250Z,0
2019-02-25T04:19:15.687Z,0
2019-02-25T04:20:17.807Z,0
2019-02-25T04:21:20.227Z,0
2019-02-25T04:22:23.006Z,0
2019-02-25T04:23:25.714Z,0
2019-02-25T04:24:27.824Z,0
2019-02-25T04:25:29.946Z,0
2019-02-25T04:26:32.062Z,0
2019-02-25T04:27:34.459Z,0
2019-02-25T04:28:36.566Z,0
2019-02-25T04:29:38.704Z,0
2019-02-25T04:30:40.848Z,0
2019-02-25T04:31:43.480Z,0
2019-02-25T04:32:45.969Z,0
2019-02-25T04:33:48.363Z,0
2019-02-25T04:34:50.491Z,0
2019-02-25T04:35:52.611Z,0
2019-02-25T04:36:54.734Z,0
2019-02-25T04:37:57.136Z,0
2019-02-25T04:38:59.844Z,0
2019-02-25T04:40:01.956Z,0
2019-02-25T04:41:04.071Z,0
2019-02-25T04:42:06.893Z,0
2019-02-25T04:43:08.997Z,0
2019-02-25T04:44:11.444Z,0
2019-02-25T04:45:13.851Z,0
2019-02-25T04:46:16.401Z,0
2019-02-25T04:47:18.550Z,0
2019-02-25T04:48:20.683Z,0
2019-02-25T04:49:22.803Z,0
2019-02-25T04:50:25.273Z,0
2019-02-25T04:51:27.981Z,0
2019-02-25T04:52:30.116Z,0
2019-02-25T04:53:32.524Z,0
2019-02-25T04:54:34.633Z,0
2019-02-25T04:55:36.737Z,0
2019-02-25T04:56:38.957Z,0
2019-02-25T04:57:41.130Z,0
2019-02-25T04:58:43.566Z,0
2019-02-25T04:59:46.264Z,0
2019-02-25T05:00:48.407Z,0
2019-02-25T05:01:50.528Z,0
2019-02-25T05:02:52.665Z,0
2019-02-25T05:03:55.084Z,0
2019-02-25T05:04:57.528Z,0
2019-02-25T05:05:59.655Z,0
2019-02-25T05:07:01.766Z,0
2019-02-25T05:08:04.280Z,0
2019-02-25T05:09:06.684Z,0
2019-02-25T05:10:08.813Z,0
2019-02-25T05:11:11.483Z,0
2019-02-25T05:12:13.622Z,0
2019-02-25T05:13:15.739Z,0
2019-02-25T05:14:18.519Z,0
2019-02-25T05:15:20.663Z,0
2019-02-25T05:16:23.065Z,0
2019-02-25T05:17:25.174Z,0
2019-02-25T05:18:27.284Z,0
2019-02-25T05:19:29.414Z,0
2019-02-25T05:20:31.528Z,0
2019-02-25T05:21:33.647Z,0
2019-02-25T05:22:37.570Z,0
2019-02-25T05:23:40.206Z,0
2019-02-25T05:24:42.340Z,0
2019-02-25T05:25:44.504Z,0
2019-02-25T05:26:46.611Z,0
2019-02-25T05:27:49.025Z,0
2019-02-25T05:28:51.451Z,0
2019-02-25T05:29:53.582Z,0
2019-02-25T05:30:55.717Z,0
2019-02-25T05:31:57.853Z,0
2019-02-25T05:32:59.968Z,0
2019-02-25T05:34:02.489Z,0
2019-02-25T05:35:04.634Z,0
2019-02-25T05:36:07.081Z,0
2019-02-25T05:37:09.884Z,4
2019-02-25T05:38:12.041Z,4
2019-02-25T05:39:14.145Z,0
2019-02-25T05:40:16.306Z,0
2019-02-25T05:41:18.458Z,4
2019-02-25T05:42:20.971Z,0
2019-02-25T05:43:23.765Z,4
2019-02-25T05:44:25.910Z,4
2019-02-25T05:45:28.030Z,4
2019-02-25T05:46:30.813Z,8
2019-02-25T05:47:33.354Z,8
2019-02-25T05:48:35.466Z,8
2019-02-25T05:49:38.291Z,12
2019-02-25T05:50:40.443Z,16
2019-02-25T05:51:42.562Z,16
2019-02-25T05:52:44.989Z,20
2019-02-25T05:53:47.232Z,28
2019-02-25T05:54:49.342Z,28
2019-02-25T05:55:51.740Z,36
2019-02-25T05:56:53.867Z,40
2019-02-25T05:57:55.983Z,48
2019-02-25T05:58:58.096Z,56
2019-02-25T06:00:00.318Z,64
2019-02-25T06:01:02.606Z,72
2019-02-25T06:02:05.475Z,84
2019-02-25T06:03:07.968Z,96
2019-02-25T06:04:10.113Z,108
2019-02-25T06:05:12.574Z,116
2019-02-25T06:06:14.970Z,136
2019-02-25T06:07:17.073Z,148
2019-02-25T06:08:19.244Z,164
2019-02-25T06:09:21.353Z,184
2019-02-25T06:10:23.482Z,200
2019-02-25T06:11:25.602Z,224
2019-02-25T06:12:27.718Z,248
2019-02-25T06:13:29.847Z,272
2019-02-25T06:14:31.956Z,304
2019-02-25T06:15:34.091Z,336
2019-02-25T06:16:36.204Z,372
2019-02-25T06:17:38.384Z,408
2019-02-25T06:18:40.499Z,452
2019-02-25T06:19:42.618Z,496
2019-02-25T06:20:44.760Z,548
2019-02-25T06:21:46.868Z,604
2019-02-25T06:22:49.286Z,656
2019-02-25T06:23:51.976Z,720
2019-02-25T06:24:54.681Z,780
2019-02-25T06:25:56.779Z,844
2019-02-25T06:26:59.215Z,908
2019-02-25T06:28:01.328Z,976
2019-02-25T06:29:03.453Z,1048
2019-02-25T06:30:05.592Z,1120
2019-02-25T06:31:07.980Z,1192
2019-02-25T06:32:10.384Z,1268
2019-02-25T06:33:12.508Z,1336
2019-02-25T06:34:14.618Z,1396
2019-02-25T06:35:16.816Z,1472
2019-02-25T06:36:19.652Z,1556
2019-02-25T06:37:21.760Z,1644
2019-02-25T06:38:24.173Z,1724
2019-02-25T06:39:26.867Z,1788
2019-02-25T06:40:28.998Z,1860
2019-02-25T06:41:31.141Z,1944
2019-02-25T06:42:33.252Z,2052
2019-02-25T06:43:35.370Z,2148
2019-02-25T06:44:37.490Z,2228
2019-02-25T06:45:39.592Z,2284
2019-02-25T06:46:41.716Z,2344
2019-02-25T06:47:43.827Z,2420
2019-02-25T06:48:45.946Z,2488
2019-02-25T06:49:48.048Z,2536
2019-02-25T06:50:50.488Z,2620
2019-02-25T06:51:52.590Z,2720
2019-02-25T06:52:55.097Z,2812
2019-02-25T06:53:57.225Z,2824
2019-02-25T06:54:59.316Z,2832
2019-02-25T06:56:01.830Z,2904
2019-02-25T06:57:03.944Z,3016
2019-02-25T06:58:06.056Z,3104
2019-02-25T06:59:08.451Z,3212
2019-02-25T07:00:10.586Z,3208
2019-02-25T07:01:12.693Z,3136
2019-02-25T07:02:15.186Z,3180
2019-02-25T07:03:17.595Z,3284
2019-02-25T07:04:19.986Z,3368
2019-02-25T07:05:22.101Z,3480
2019-02-25T07:06:24.230Z,3644
2019-02-25T07:07:26.346Z,3780
2019-02-25T07:08:28.454Z,3888
2019-02-25T07:09:30.583Z,3916
2019-02-25T07:10:32.685Z,3892
2019-02-25T07:11:34.819Z,3900
2019-02-25T07:12:36.946Z,4108
2019-02-25T07:13:39.059Z,4336
2019-02-25T07:14:41.451Z,4432
2019-02-25T07:15:43.581Z,4472
2019-02-25T07:16:45.975Z,4492
2019-02-25T07:17:48.106Z,4544
2019-02-25T07:18:50.227Z,4740
2019-02-25T07:19:52.355Z,4876
2019-02-25T07:20:54.464Z,4920
2019-02-25T07:21:56.583Z,5140
2019-02-25T07:22:58.979Z,5280
2019-02-25T07:24:01.120Z,5260
2019-02-25T07:25:03.535Z,5224
2019-02-25T07:26:05.931Z,5344
2019-02-25T07:27:08.342Z,5564
2019-02-25T07:28:10.526Z,6096
2019-02-25T07:29:12.650Z,7472
2019-02-25T07:30:15.448Z,8820
2019-02-25T07:31:17.635Z,9128
2019-02-25T07:32:19.730Z,9832
2019-02-25T07:33:22.260Z,10080
2019-02-25T07:34:25.368Z,9536
2019-02-25T07:35:27.488Z,7656
2019-02-25T07:36:29.922Z,7372
2019-02-25T07:37:32.314Z,8548
2019-02-25T07:38:39.291Z,9088
2019-02-25T07:39:42.101Z,10140
2019-02-25T07:40:44.224Z,11512
2019-02-25T07:41:46.332Z,11988
2019-02-25T07:42:48.482Z,11992
2019-02-25T07:43:50.601Z,12572
2019-02-25T07:44:52.769Z,13024
2019-02-25T07:45:54.903Z,11392
2019-02-25T07:46:57.025Z,10660
2019-02-25T07:47:59.123Z,10424
2019-02-25T07:49:01.257Z,9356
2019-02-25T07:50:03.394Z,8416
2019-02-25T07:51:05.509Z,8708
2019-02-25T07:52:07.641Z,10304
2019-02-25T07:53:09.783Z,12544
2019-02-25T07:54:12.289Z,12564
2019-02-25T07:55:14.414Z,11380
2019-02-25T07:56:16.547Z,10880
2019-02-25T07:57:18.662Z,10308
2019-02-25T07:58:20.794Z,9328
2019-02-25T07:59:22.945Z,8568
2019-02-25T08:00:25.359Z,8464
2019-02-25T08:01:27.489Z,8304
2019-02-25T08:02:29.879Z,8692
2019-02-25T08:03:32.300Z,8508
2019-02-25T08:04:34.688Z,7932
2019-02-25T08:05:36.819Z,8264
2019-02-25T08:06:38.933Z,8036
2019-02-25T08:07:41.058Z,7132
2019-02-25T08:08:43.176Z,6540
2019-02-25T08:09:45.281Z,6712
2019-02-25T08:10:47.713Z,7160
2019-02-25T08:11:49.839Z,7096
2019-02-25T08:12:51.994Z,5452
2019-02-25T08:13:54.122Z,5084
2019-02-25T08:14:56.245Z,4840
2019-02-25T08:15:58.377Z,4540
2019-02-25T08:17:00.502Z,5608
2019-02-25T08:18:02.620Z,5424
2019-02-25T08:19:04.870Z,5364
2019-02-25T08:20:07.002Z,5760
2019-02-25T08:21:09.176Z,5760
2019-02-25T08:22:11.274Z,6052
2019-02-25T08:23:13.401Z,7184
2019-02-25T08:24:15.806Z,7060
2019-02-25T08:25:17.906Z,7156
2019-02-25T08:26:20.040Z,6836
2019-02-25T08:27:22.152Z,7304
2019-02-25T08:28:24.273Z,6748
2019-02-25T08:29:26.370Z,6680
2019-02-25T08:30:28.507Z,6928
2019-02-25T08:31:31.291Z,6872
2019-02-25T08:32:33.413Z,6368
2019-02-25T08:33:35.537Z,6628
2019-02-25T08:34:37.933Z,6564
2019-02-25T08:35:40.677Z,7072
2019-02-25T08:36:42.834Z,6632
2019-02-25T08:37:45.236Z,6836
2019-02-25T08:38:47.387Z,6524
2019-02-25T08:39:49.495Z,7248
2019-02-25T08:40:51.613Z,7196
2019-02-25T08:41:53.738Z,7444
2019-02-25T08:42:55.834Z,7732
2019-02-25T08:43:57.961Z,8388
2019-02-25T08:45:00.094Z,7764
2019-02-25T08:46:02.331Z,7684
2019-02-25T08:47:04.749Z,8220
2019-02-25T08:48:06.882Z,8084
2019-02-25T08:49:09.005Z,8164
2019-02-25T08:50:11.131Z,8628
2019-02-25T08:51:13.637Z,9476
2019-02-25T08:52:15.745Z,9276
2019-02-25T08:53:18.142Z,9980
2019-02-25T08:54:20.268Z,9876
2019-02-25T08:55:22.661Z,10204
2019-02-25T08:56:24.784Z,10004
2019-02-25T08:57:26.927Z,10976
2019-02-25T08:58:29.037Z,10604
2019-02-25T08:59:31.172Z,12760
2019-02-25T09:00:33.283Z,12092
2019-02-25T09:01:35.793Z,11120
2019-02-25T09:02:38.206Z,12756
2019-02-25T09:03:40.344Z,11856
2019-02-25T09:04:42.455Z,10428
2019-02-25T09:05:44.576Z,11876
2019-02-25T09:06:46.738Z,10660
2019-02-25T09:07:48.895Z,11116
2019-02-25T09:08:51.081Z,11660
2019-02-25T09:09:53.197Z,11360
2019-02-25T09:10:55.325Z,11172
2019-02-25T09:11:57.434Z,12380
2019-02-25T09:12:59.836Z,11988
2019-02-25T09:14:01.983Z,11056
2019-02-25T09:15:04.107Z,11320
2019-02-25T09:16:06.570Z,10456
2019-02-25T09:17:08.961Z,10896
2019-02-25T09:18:11.385Z,10960
2019-02-25T09:19:13.511Z,12004
2019-02-25T09:20:15.628Z,11960
2019-02-25T09:21:18.041Z,12564
2019-02-25T09:22:20.166Z,11196
2019-02-25T09:23:22.313Z,13008
2019-02-25T09:24:24.729Z,14292
2019-02-25T09:25:26.873Z,15856
2019-02-25T09:26:28.986Z,16124
2019-02-25T09:27:31.091Z,15744
2019-02-25T09:28:33.499Z,16392
2019-02-25T09:29:35.611Z,19808
2019-02-25T09:30:37.726Z,16284
2019-02-25T09:31:40.144Z,16472
2019-02-25T09:32:42.259Z,20160
2019-02-25T09:33:45.067Z,21152
2019-02-25T09:34:47.241Z,19232
2019-02-25T09:35:49.379Z,18912
2019-02-25T09:36:52.065Z,18976
2019-02-25T09:37:54.208Z,13992
2019-02-25T09:38:56.787Z,18400
2019-02-25T09:39:59.001Z,21184
2019-02-25T09:41:01.491Z,25888
2019-02-25T09:42:03.995Z,21280
2019-02-25T09:43:06.129Z,28800
2019-02-25T09:44:08.307Z,25088
2019-02-25T09:45:10.452Z,29504
2019-02-25T09:46:12.603Z,22272
2019-02-25T09:47:15.061Z,23424
2019-02-25T09:48:17.190Z,22144
2019-02-25T09:49:19.691Z,28064
2019-02-25T09:50:21.825Z,28448
2019-02-25T09:51:23.979Z,44256
2019-02-25T09:52:26.109Z,34752
2019-02-25T09:53:28.256Z,43968
2019-02-25T09:54:30.410Z,53248
2019-02-25T09:55:32.540Z,50752
2019-02-25T09:56:34.744Z,57056
2019-02-25T09:57:38.998Z,54336
2019-02-25T09:58:41.130Z,52608
2019-02-25T09:59:43.286Z,55680
2019-02-25T10:00:46.232Z,56000
2019-02-25T10:01:49.029Z,54528
2019-02-25T10:02:51.142Z,54368
2019-02-25T10:03:53.678Z,52576
2019-02-25T10:04:56.099Z,52896
2019-02-25T10:05:58.220Z,51712
2019-02-25T10:07:02.410Z,53152
2019-02-25T10:08:04.740Z,48416
2019-02-25T10:09:07.150Z,50144
2019-02-25T10:10:09.266Z,52160
2019-02-25T10:11:11.422Z,52576
2019-02-25T10:12:13.827Z,51808
2019-02-25T10:13:15.941Z,53440
2019-02-25T10:14:18.099Z,47648
2019-02-25T10:15:20.209Z,49472
2019-02-25T10:16:22.662Z,46528
2019-02-25T10:17:24.783Z,47936
2019-02-25T10:18:27.214Z,49280
2019-02-25T10:19:29.340Z,50816
2019-02-25T10:20:31.472Z,52320
2019-02-25T10:21:33.598Z,51712
2019-02-25T10:22:35.704Z,51968
2019-02-25T10:23:37.848Z,52192
2019-02-25T10:24:42.327Z,53472
2019-02-25T10:25:44.448Z,54176
2019-02-25T10:26:46.652Z,54368
2019-02-25T10:27:49.568Z,54528
2019-02-25T10:28:51.898Z,55328
2019-02-25T10:29:54.035Z,57792
2019-02-25T10:30:56.165Z,56224
2019-02-25T10:32:00.101Z,56000
2019-02-25T10:33:08.132Z,54560
2019-02-25T10:34:10.275Z,58656
2019-02-25T10:35:12.395Z,59616
2019-02-25T10:36:14.532Z,59584
2019-02-25T10:37:17.197Z,58912
2019-02-25T10:38:19.914Z,59648
2019-02-25T10:39:23.685Z,59232
2019-02-25T10:40:27.458Z,63584
2019-02-25T10:41:29.996Z,61792
2019-02-25T10:42:33.459Z,61696
2019-02-25T10:43:39.588Z,63488
2019-02-25T10:44:41.724Z,64576
2019-02-25T10:45:45.398Z,64384
2019-02-25T10:46:49.062Z,61376
2019-02-25T10:47:53.595Z,61984
2019-02-25T10:49:09.026Z,61312
2019-02-25T10:50:14.105Z,65856
2019-02-25T10:51:16.271Z,63648
2019-02-25T10:52:18.385Z,57504
2019-02-25T10:53:22.061Z,63200
2019-02-25T10:54:25.405Z,62144
2019-02-25T10:55:27.668Z,68320
2019-02-25T10:56:29.809Z,66752
2019-02-25T10:57:31.929Z,67904
2019-02-25T10:58:35.780Z,70848
2019-02-25T10:59:39.457Z,67200
2019-02-25T11:00:45.868Z,65696
2019-02-25T11:01:48.488Z,69056
2019-02-25T11:02:51.159Z,68032
2019-02-25T11:04:00.086Z,65920
2019-02-25T11:05:02.528Z,72032
2019-02-25T11:06:04.670Z,72832
2019-02-25T11:07:07.665Z,73056
2019-02-25T11:08:13.702Z,74656
2019-02-25T11:09:18.090Z,72224
2019-02-25T11:10:22.016Z,69216
2019-02-25T11:11:25.252Z,72256
2019-02-25T11:12:30.032Z,71008
2019-02-25T11:13:36.503Z,72608
2019-02-25T11:14:40.995Z,70816
2019-02-25T11:15:46.528Z,69696
2019-02-25T11:16:52.185Z,69952
2019-02-25T11:17:56.026Z,68288
2019-02-25T11:19:00.726Z,69024
2019-02-25T11:20:03.761Z,65440
2019-02-25T11:21:08.808Z,66368
2019-02-25T11:22:14.500Z,69792
2019-02-25T11:23:19.382Z,69504
2019-02-25T11:24:25.376Z,72096
2019-02-25T11:25:28.298Z,71136
2019-02-25T11:26:32.825Z,72640
2019-02-25T11:27:37.703Z,71680
2019-02-25T11:28:43.721Z,69888
2019-02-25T11:29:46.566Z,68960
2019-02-25T11:30:51.884Z,68544
2019-02-25T11:31:56.234Z,68992
2019-02-25T11:33:00.005Z,70528
2019-02-25T11:34:03.133Z,70304
2019-02-25T11:35:10.752Z,69248
2019-02-25T11:36:17.153Z,67328
2019-02-25T11:37:24.623Z,69152
2019-02-25T11:38:30.446Z,72832
2019-02-25T11:39:39.192Z,69216
2019-02-25T11:40:41.350Z,67040
2019-02-25T11:41:43.491Z,65280
2019-02-25T11:42:46.021Z,63072
2019-02-25T11:43:50.400Z,63296
2019-02-25T11:44:59.672Z,63488
2019-02-25T11:46:06.418Z,60640
2019-02-25T11:47:08.557Z,60768
2019-02-25T11:48:10.722Z,66656
2019-02-25T11:49:12.850Z,69216
2019-02-25T11:50:14.984Z,68704
2019-02-25T11:51:17.802Z,68384
2019-02-25T11:52:20.265Z,65504
2019-02-25T11:53:22.692Z,62848
2019-02-25T11:54:25.160Z,61536
2019-02-25T11:55:27.635Z,63136
2019-02-25T11:56:31.163Z,64192
2019-02-25T11:57:33.675Z,66496
2019-02-25T11:58:35.819Z,67584
2019-02-25T11:59:38.255Z,67168
2019-02-25T12:00:40.380Z,66400
2019-02-25T12:01:43.063Z,62784
2019-02-25T12:02:45.220Z,67072
2019-02-25T12:03:47.396Z,69216
2019-02-25T12:04:49.553Z,69568
2019-02-25T12:05:52.547Z,67840
2019-02-25T12:06:54.822Z,67680
2019-02-25T12:07:57.249Z,66688
2019-02-25T12:08:59.395Z,70272
2019-02-25T12:10:01.515Z,71776
2019-02-25T12:11:04.050Z,66848
2019-02-25T12:12:06.202Z,62880
2019-02-25T12:13:08.626Z,65152
2019-02-25T12:14:10.829Z,65152
2019-02-25T12:15:12.998Z,62688
2019-02-25T12:16:15.432Z,63168
2019-02-25T12:17:17.587Z,65728
2019-02-25T12:18:19.719Z,68800
2019-02-25T12:19:21.848Z,68960
2019-02-25T12:20:23.989Z,67168
2019-02-25T12:21:26.106Z,64832
2019-02-25T12:22:28.250Z,65376
2019-02-25T12:23:30.385Z,65408
2019-02-25T12:24:32.534Z,62496
2019-02-25T12:25:34.665Z,63168
2019-02-25T12:26:36.798Z,65504
2019-02-25T12:27:38.935Z,65760
2019-02-25T12:28:41.395Z,65344
2019-02-25T12:29:44.041Z,66016
2019-02-25T12:30:46.474Z,65408
2019-02-25T12:31:48.612Z,65824
2019-02-25T12:32:51.041Z,67616
2019-02-25T12:33:53.175Z,66816
2019-02-25T12:34:55.723Z,67776
2019-02-25T12:35:57.858Z,67264
2019-02-25T12:37:00.280Z,65856
2019-02-25T12:38:02.442Z,65216
2019-02-25T12:39:04.589Z,67008
2019-02-25T12:40:06.727Z,68352
2019-02-25T12:41:08.879Z,68896
2019-02-25T12:42:11.017Z,69440
2019-02-25T12:43:13.153Z,71232
2019-02-25T12:44:15.294Z,69984
2019-02-25T12:45:17.473Z,69024
2019-02-25T12:46:19.633Z,68128
2019-02-25T12:47:21.786Z,68800
2019-02-25T12:48:23.918Z,70016
2019-02-25T12:49:26.335Z,68640
2019-02-25T12:50:28.767Z,68320
2019-02-25T12:51:31.193Z,69664
2019-02-25T12:52:33.614Z,72256
2019-02-25T12:53:37.740Z,69376
2019-02-25T12:54:40.041Z,69984
2019-02-25T12:55:42.184Z,69984
2019-02-25T12:56:44.707Z,66720
2019-02-25T12:57:47.244Z,62432
2019-02-25T12:58:49.764Z,65248
2019-02-25T12:59:51.915Z,66304
2019-02-25T13:00:54.049Z,66048
2019-02-25T13:01:56.183Z,69152
2019-02-25T13:02:58.341Z,66176
2019-02-25T13:04:00.470Z,64160
2019-02-25T13:05:02.899Z,61280
2019-02-25T13:06:05.052Z,56032
2019-02-25T13:07:07.220Z,57248
2019-02-25T13:08:09.358Z,52800
2019-02-25T13:09:11.511Z,50432
2019-02-25T13:10:13.672Z,49920
2019-02-25T13:11:15.813Z,52384
2019-02-25T13:12:18.379Z,49728
2019-02-25T13:13:20.532Z,43808
2019-02-25T13:14:22.682Z,45344
2019-02-25T13:15:24.840Z,43872
2019-02-25T13:16:27.337Z,50592
2019-02-25T13:17:29.797Z,52352
2019-02-25T13:18:31.963Z,39840
2019-02-25T13:19:34.112Z,36896
2019-02-25T13:20:36.648Z,39104
2019-02-25T13:21:38.815Z,44480
2019-02-25T13:22:40.979Z,45056
2019-02-25T13:23:43.402Z,46656
2019-02-25T13:24:45.572Z,41216
2019-02-25T13:25:48.005Z,38592
2019-02-25T13:26:50.539Z,35360
2019-02-25T13:27:54.256Z,37440
2019-02-25T13:29:06.090Z,36096
2019-02-25T13:30:08.387Z,20928
2019-02-25T13:31:10.580Z,19232
2019-02-25T13:32:13.655Z,43264
2019-02-25T13:33:15.861Z,36384
2019-02-25T13:34:18.365Z,44864
2019-02-25T13:35:20.605Z,48768
2019-02-25T13:36:23.140Z,43776
2019-02-25T13:37:25.370Z,41056
2019-02-25T13:38:27.570Z,46656
2019-02-25T13:39:30.191Z,50560
2019-02-25T13:40:32.406Z,50976
2019-02-25T13:41:34.674Z,49280
2019-02-25T13:42:37.631Z,42016
2019-02-25T13:43:40.504Z,40768
2019-02-25T13:44:43.096Z,40096
2019-02-25T13:45:45.371Z,38880
2019-02-25T13:46:47.884Z,35264
2019-02-25T13:47:50.431Z,34304
2019-02-25T13:48:52.761Z,30368
2019-02-25T13:49:55.544Z,29088
2019-02-25T13:50:58.144Z,23872
2019-02-25T13:52:00.689Z,31520
2019-02-25T13:53:04.290Z,30208
2019-02-25T13:54:06.711Z,33952
2019-02-25T13:55:08.983Z,24640
2019-02-25T13:56:11.249Z,17020
2019-02-25T13:57:13.919Z,18528
2019-02-25T13:58:16.190Z,22080
2019-02-25T13:59:18.474Z,37024
2019-02-25T14:00:20.732Z,32352
2019-02-25T14:01:23.138Z,26784
2019-02-25T14:02:25.727Z,28448
2019-02-25T14:03:28.181Z,28096
2019-02-25T14:04:30.499Z,29408
2019-02-25T14:05:32.762Z,32672
2019-02-25T14:06:34.970Z,32480
2019-02-25T14:07:37.223Z,31008
2019-02-25T14:08:39.465Z,29600
2019-02-25T14:09:42.572Z,38944
2019-02-25T14:10:47.380Z,39008
2019-02-25T14:11:49.955Z,40064
2019-02-25T14:12:52.562Z,31424
2019-02-25T14:13:55.189Z,14012
2019-02-25T14:14:58.673Z,18496
2019-02-25T14:16:00.875Z,28256
2019-02-25T14:17:03.138Z,30816